Archival Weather

Heathrow

London, United Kingdom (EGLL)

Report from: Friday, June 21, 2024 11:20 AM BST
Current time: Sunday, July 14, 2024 12:19 PM BST

Current weather – Weather history – Daily summaries
Weather forecast

Temperature22.0°C (71.6°F)
Dew point8.0°C (46.4°F)
Winds 8 kts (4.1 m/s, 9.2 mph) Vrb
Winds variableWinds variable from South-Southeast (160°) to West (260°)
Visibility6.2 mi. (10 km)
Clouds Sky clear
Altimeter29.94 in.Hg (1014 mB)
Relative humidity41 %
Density altitude946 ft. (288 m)
Remarks Fully automated report
No clouds detected
Flight conditions Visual Meteorological Conditions
Raw dataEGLL 211020Z AUTO 22008KT 160V260 9999 NCD 22/08 Q1014
An error has occurred. This application may no longer respond until reloaded. Reload 🗙